MAPA DE AEROPUERTO

INFORMACIÓN METAR y TAF


Deprecated: The each() function is deprecated. This message will be suppressed on further calls in /home/customer/www/clickair-va.com/public_html/VAM/vam/helpers/get_metar.php on line 20
METAR FOR EGLC
ADDS - METARS form results

(2159 UTC 25 July 2021)
Data provider http://aviationweather.gov/metar/data/
 
METAR text: EGLC 252150Z AUTO VRB02KT 8000 BKN014 BKN023 18/17 Q1009
Conditions at: EGLC (LONDON CITY AIRP, GB) observed 2150 UTC 25 July 2021
Temperature: 18.0°C (64°F)
Dewpoint: 17.0°C (63°F) [RH = 94%]
Pressure (altimeter): 29.79 inches Hg (1009.0 mb)
Winds: variable direction winds at 2 MPH (2 knots; 1.0 m/s)
Visibility: 5 miles ( 8 km)
Ceiling: 1400 feet AGL
Clouds: broken clouds at 1400 feet AGL
broken clouds at 2300 feet AGL
Weather: no significant weather observed at this time

METAR text: EGLC 252120Z AUTO VRB03KT 9999 BKN015 BKN025 17/16 Q1009
Conditions at: EGLC (LONDON CITY AIRP, GB) observed 2120 UTC 25 July 2021
Temperature: 17.0°C (63°F)
Dewpoint: 16.0°C (61°F) [RH = 94%]
Pressure (altimeter): 29.79 inches Hg (1009.0 mb)
Winds: variable direction winds at 3 MPH (3 knots; 1.5 m/s)
Visibility: 6 or more miles (10+ km)
Ceiling: 1500 feet AGL
Clouds: broken clouds at 1500 feet AGL
broken clouds at 2500 feet AGL
Weather: no significant weather observed at this time

Forecast for: EGLC (LONDON CITY AIRP, GB)
Text: TAF EGLC 251656Z 2518/2521 32005KT 9999 FEW020
Forecast period: 1800 to 2100 UTC 25 July 2021
Forecast type: FROM: standard forecast or significant change
Winds: from the NW (320 degrees) at 6 MPH (5 knots; 2.6 m/s)
Visibility: 6 or more miles (10+ km)
Ceiling: at least 12,000 feet AGL
Clouds: few clouds at 2000 feet AGL
Weather: no significant weather forecast for this period
Text: TEMPO 2518/2521 7000 SHRA BKN014CB
Forecast period: 1800 to 2100 UTC 25 July 2021
Forecast type: TEMPORARY: The following changes expected for less than half the time period
Visibility: 4 miles (7 km)
Ceiling: 1400 feet AGL
Clouds: broken clouds at 1400 feet AGL
Weather: SHRA  (rain showers)
Text: PROB40
Forecast period: 1800 to 2000 UTC 25 July 2021
Forecast type: TEMPORARY: The following changes expected for less than half the time period
Visibility: 1.24 miles (2.00 km)
Ceiling: unknown
Clouds: missing
Weather: +TSRA +TSGR  (heavy rain associated with thunderstorm(s), unknown weather)